EmailTwitter


Observations de surface / Europe / LIRF (16242)

Régions: Québec | Canada | États-Unis | Europe | France | UK | Elsewhere
Station
Affichage
Infos & localisation pour LIRF (16242) | Aide pour décoder les METARs

Observations prises le 2017-04-27 à 10H50 UTC (LIRF)

Etat du ciel: ciel variable.

Température: 19.0 Celsius

Point de rosée: 13.0 Celsius

Humidité relative: 68%

Vents: Sud-sud-est à 35 km/h ou 19 noeuds.

Rafale du vent: 54 km/h ou 29 noeuds.

Pression au niveau moyen de la mer: 101.20 kilopascals.

Visibilité horizontale: 6.21 milles terrestres ou 9.94 kilomètres.

Observation METAR:

LIRF 271050Z 16019G29KT 140V200 9999 SCT020 19/13 Q1012 TEMPO 4000 SHRA=